createdAt,value
2019-01-15T00:00:47.966Z,13.60
2019-01-15T00:03:16.918Z,7.67
2019-01-15T00:05:45.523Z,14.77
2019-01-15T00:08:14.478Z,16.00
2019-01-15T00:10:43.977Z,20.93
2019-01-15T00:13:13.177Z,16.43
2019-01-15T00:15:41.792Z,11.57
2019-01-15T00:18:10.393Z,18.67
2019-01-15T00:20:39.342Z,15.13
2019-01-15T00:23:08.337Z,21.30
2019-01-15T00:25:36.962Z,15.93
2019-01-15T00:28:06.012Z,12.63
2019-01-15T00:30:34.701Z,13.87
2019-01-15T00:33:03.599Z,13.70
2019-01-15T00:35:32.481Z,19.83
2019-01-15T00:38:01.096Z,8.23
2019-01-15T00:40:30.041Z,14.57
2019-01-15T00:42:58.644Z,16.23
2019-01-15T00:45:27.253Z,11.50
2019-01-15T00:47:55.900Z,11.57
2019-01-15T00:50:24.808Z,10.37
2019-01-15T00:52:53.698Z,15.67
2019-01-15T00:55:22.694Z,8.90
2019-01-15T00:57:51.596Z,8.77
2019-01-15T01:00:21.778Z,8.53
2019-01-15T01:02:50.608Z,13.37
2019-01-15T01:05:19.695Z,14.23
2019-01-15T01:07:48.396Z,6.87
2019-01-15T01:10:17.374Z,9.17
2019-01-15T01:12:46.671Z,6.93
2019-01-15T01:15:16.669Z,10.17
2019-01-15T01:17:45.647Z,10.07
2019-01-15T01:20:17.449Z,18.13
2019-01-15T01:22:46.170Z,3.83
2019-01-15T01:25:15.881Z,9.70
2019-01-15T01:27:44.850Z,15.63
2019-01-15T01:30:19.254Z,16.37
2019-01-15T01:32:48.159Z,12.03
2019-01-15T01:35:17.141Z,10.50
2019-01-15T01:37:45.851Z,14.73
2019-01-15T01:40:16.599Z,11.83
2019-01-15T01:42:45.382Z,13.97
2019-01-15T01:45:15.058Z,9.50
2019-01-15T01:47:44.052Z,10.90
2019-01-15T01:50:13.865Z,10.83
2019-01-15T01:52:42.714Z,12.60
2019-01-15T01:55:13.082Z,9.70
2019-01-15T01:57:42.079Z,11.37
2019-01-15T02:00:21.310Z,8.10
2019-01-15T02:02:50.300Z,17.60
2019-01-15T02:05:19.606Z,13.83
2019-01-15T02:07:48.801Z,11.20
2019-01-15T02:10:19.127Z,14.33
2019-01-15T02:12:48.742Z,14.57
2019-01-15T02:15:19.739Z,12.90
2019-01-15T02:17:48.977Z,13.60
2019-01-15T02:20:19.914Z,8.57
2019-01-15T02:22:48.909Z,1.87
2019-01-15T02:25:17.609Z,9.60
2019-01-15T02:27:48.243Z,9.37
2019-01-15T02:30:19.372Z,9.33
2019-01-15T02:32:48.361Z,4.50
2019-01-15T02:35:17.358Z,12.57
2019-01-15T02:37:46.149Z,6.60
2019-01-15T02:40:14.876Z,13.17
2019-01-15T02:42:46.714Z,12.43
2019-01-15T02:45:16.433Z,13.63
2019-01-15T02:47:45.609Z,15.20
2019-01-15T02:50:16.032Z,10.93
2019-01-15T02:52:44.682Z,18.83
2019-01-15T02:55:13.919Z,10.70
2019-01-15T02:57:42.805Z,11.50
2019-01-15T03:00:17.301Z,9.83
2019-01-15T03:02:46.330Z,22.57
2019-01-15T03:05:15.630Z,16.20
2019-01-15T03:07:44.626Z,12.83
2019-01-15T03:10:15.150Z,15.83
2019-01-15T03:12:54.504Z,17.17
2019-01-15T03:15:17.756Z,12.57
2019-01-15T03:17:46.445Z,16.10
2019-01-15T03:20:15.686Z,9.20
2019-01-15T03:22:44.722Z,6.90
2019-01-15T03:25:14.132Z,15.83
2019-01-15T03:27:42.820Z,13.77
2019-01-15T03:30:14.779Z,9.60
2019-01-15T03:32:43.406Z,13.70
2019-01-15T03:35:12.465Z,2.73
2019-01-15T03:37:41.093Z,2.67
2019-01-15T03:40:14.324Z,8.10
2019-01-15T03:42:43.329Z,9.47
2019-01-15T03:45:12.045Z,11.53
2019-01-15T03:47:41.008Z,6.70
2019-01-15T03:50:09.761Z,7.07
2019-01-15T03:52:38.462Z,6.37
2019-01-15T03:55:07.417Z,19.17
2019-01-15T03:57:36.783Z,9.90
2019-01-15T04:00:08.526Z,8.23
2019-01-15T04:02:37.538Z,10.17
2019-01-15T04:05:08.576Z,13.37
2019-01-15T04:07:37.658Z,7.43
2019-01-15T04:10:07.758Z,12.30
2019-01-15T04:12:36.679Z,13.00
2019-01-15T04:15:07.304Z,14.97
2019-01-15T04:17:36.819Z,10.07
2019-01-15T04:20:08.297Z,15.73
2019-01-15T04:22:37.573Z,10.93
2019-01-15T04:25:07.080Z,12.40
2019-01-15T04:27:35.970Z,11.03
2019-01-15T04:30:06.949Z,9.70
2019-01-15T04:32:35.903Z,5.67
2019-01-15T04:35:05.912Z,11.13
2019-01-15T04:37:34.809Z,9.00
2019-01-15T04:40:03.642Z,10.67
2019-01-15T04:42:32.277Z,7.97
2019-01-15T04:45:00.989Z,8.37
2019-01-15T04:47:29.642Z,4.70
2019-01-15T04:49:58.557Z,9.90
2019-01-15T04:52:28.158Z,7.73
2019-01-15T04:54:56.810Z,10.73
2019-01-15T04:57:25.500Z,9.93
2019-01-15T04:59:54.120Z,14.93
2019-01-15T05:02:23.013Z,6.70
2019-01-15T05:04:51.970Z,13.73
2019-01-15T05:07:20.574Z,8.10
2019-01-15T05:09:49.579Z,9.57
2019-01-15T05:12:18.189Z,15.37
2019-01-15T05:14:47.365Z,18.80
2019-01-15T05:17:16.463Z,14.50
2019-01-15T05:19:45.345Z,11.90
2019-01-15T05:22:15.162Z,13.33
2019-01-15T05:24:44.055Z,15.50
2019-01-15T05:27:13.045Z,16.20
2019-01-15T05:29:41.679Z,15.07
2019-01-15T05:32:10.327Z,15.57
2019-01-15T05:34:38.946Z,10.67
2019-01-15T05:37:07.563Z,13.07
2019-01-15T05:39:36.483Z,11.13
2019-01-15T05:42:05.182Z,9.00
2019-01-15T05:44:34.057Z,12.77
2019-01-15T05:47:02.934Z,8.83
2019-01-15T05:49:31.567Z,12.60
2019-01-15T05:52:00.536Z,14.87
2019-01-15T05:54:29.154Z,9.97
2019-01-15T05:56:58.100Z,7.20
2019-01-15T05:59:26.778Z,12.20
2019-01-15T06:01:56.001Z,14.43
2019-01-15T06:04:24.978Z,7.67
2019-01-15T06:06:53.872Z,15.13
2019-01-15T06:09:22.764Z,10.63
2019-01-15T06:11:51.875Z,11.00
2019-01-15T06:14:20.515Z,15.07
2019-01-15T06:16:49.435Z,11.43
2019-01-15T06:19:18.093Z,15.87
2019-01-15T06:21:47.019Z,13.80
2019-01-15T06:24:15.686Z,9.63
2019-01-15T06:26:44.289Z,7.00
2019-01-15T06:29:13.486Z,9.27
2019-01-15T06:31:42.478Z,14.50
2019-01-15T06:34:11.366Z,14.37
2019-01-15T06:36:40.365Z,11.47
2019-01-15T06:39:09.867Z,14.30
2019-01-15T06:41:38.563Z,9.03
2019-01-15T06:44:07.657Z,11.37
2019-01-15T06:46:36.642Z,12.10
2019-01-15T06:49:05.354Z,7.07
2019-01-15T06:51:34.088Z,11.27
2019-01-15T06:54:03.013Z,12.17
2019-01-15T06:56:32.213Z,6.10
2019-01-15T06:59:00.874Z,5.97
2019-01-15T07:01:29.791Z,8.17
2019-01-15T07:03:58.396Z,7.47
2019-01-15T07:06:27.361Z,6.33
2019-01-15T07:08:55.991Z,9.43
2019-01-15T07:11:24.941Z,7.40
2019-01-15T07:13:57.137Z,10.30
2019-01-15T07:16:24.672Z,15.57
2019-01-15T07:18:53.975Z,7.50
2019-01-15T07:21:23.271Z,8.27
2019-01-15T07:23:52.329Z,7.07
2019-01-15T07:26:21.260Z,7.83
2019-01-15T07:28:50.253Z,14.57
2019-01-15T07:31:19.143Z,11.33
2019-01-15T07:33:48.038Z,11.53
2019-01-15T07:36:16.668Z,14.00
2019-01-15T07:38:45.628Z,7.93
2019-01-15T07:41:14.593Z,14.10
2019-01-15T07:43:43.230Z,8.23
2019-01-15T07:46:11.873Z,8.63
2019-01-15T07:48:40.479Z,9.97
2019-01-15T07:51:09.355Z,6.33
2019-01-15T07:53:38.347Z,9.03
2019-01-15T07:56:07.050Z,9.43
2019-01-15T07:58:35.679Z,9.00
2019-01-15T08:01:04.716Z,9.23
2019-01-15T08:03:33.605Z,9.77
2019-01-15T08:06:02.600Z,9.43
2019-01-15T08:08:31.694Z,7.23
2019-01-15T08:11:00.547Z,5.97
2019-01-15T08:13:29.583Z,13.27
2019-01-15T08:15:58.198Z,16.63
2019-01-15T08:18:26.836Z,8.83
2019-01-15T08:20:55.458Z,14.13
2019-01-15T08:23:24.097Z,12.23
2019-01-15T08:25:52.730Z,7.53
2019-01-15T08:28:22.032Z,8.83
2019-01-15T08:30:50.669Z,9.23
2019-01-15T08:33:19.559Z,13.50
2019-01-15T08:35:48.478Z,13.57
2019-01-15T08:38:17.465Z,9.97
2019-01-15T08:40:46.123Z,11.97
2019-01-15T08:43:15.155Z,10.53
2019-01-15T08:45:44.049Z,9.97
2019-01-15T08:48:17.801Z,9.97
2019-01-15T08:50:48.169Z,11.17
2019-01-15T08:53:24.744Z,7.17
2019-01-15T08:56:00.667Z,6.57
2019-01-15T08:58:29.588Z,15.50
2019-01-15T09:00:58.484Z,10.83
2019-01-15T09:03:35.411Z,10.70
2019-01-15T09:06:05.071Z,12.20
2019-01-15T09:08:33.685Z,15.03
2019-01-15T09:11:02.313Z,12.63
2019-01-15T09:13:31.032Z,12.17
2019-01-15T09:15:59.666Z,9.50
2019-01-15T09:18:28.890Z,9.37
2019-01-15T09:20:57.660Z,15.60
2019-01-15T09:23:27.002Z,8.43
2019-01-15T09:25:55.633Z,10.43
2019-01-15T09:28:24.334Z,9.73
2019-01-15T09:30:53.268Z,9.90
2019-01-15T09:33:22.266Z,14.07
2019-01-15T09:35:50.906Z,11.90
2019-01-15T09:38:19.944Z,15.63
2019-01-15T09:40:48.830Z,12.87
2019-01-15T09:43:17.826Z,14.53
2019-01-15T09:45:46.720Z,12.53
2019-01-15T09:48:18.270Z,13.27
2019-01-15T09:50:47.572Z,11.30
2019-01-15T09:53:16.667Z,12.57
2019-01-15T09:55:45.559Z,17.17
2019-01-15T09:58:14.566Z,12.67
2019-01-15T10:00:43.195Z,12.50
2019-01-15T10:03:12.236Z,17.93
2019-01-15T10:05:41.432Z,21.80
2019-01-15T10:08:10.222Z,14.67
2019-01-15T10:10:39.221Z,10.33
2019-01-15T10:13:08.209Z,13.27
2019-01-15T10:15:36.856Z,16.97
2019-01-15T10:18:05.890Z,19.57
2019-01-15T10:20:34.942Z,16.57
2019-01-15T10:23:03.678Z,16.03
2019-01-15T10:25:32.991Z,14.23
2019-01-15T10:28:01.891Z,17.17
2019-01-15T10:31:21.547Z,16.43
2019-01-15T10:33:58.018Z,13.07
2019-01-15T10:36:25.384Z,17.07
2019-01-15T10:38:54.657Z,17.73
2019-01-15T10:41:23.317Z,22.80
2019-01-15T10:43:51.949Z,16.27
2019-01-15T10:46:21.400Z,14.93
2019-01-15T10:48:50.853Z,22.20
2019-01-15T10:51:19.739Z,18.37
2019-01-15T10:53:48.787Z,16.07
2019-01-15T10:56:18.035Z,18.17
2019-01-15T10:58:46.663Z,18.17
2019-01-15T11:01:15.721Z,22.80
2019-01-15T11:03:45.020Z,28.80
2019-01-15T11:06:14.012Z,22.17
2019-01-15T11:08:42.649Z,21.20
2019-01-15T11:11:11.610Z,21.67
2019-01-15T11:13:40.488Z,23.67
2019-01-15T11:16:09.475Z,21.77
2019-01-15T11:18:39.513Z,21.60
2019-01-15T11:21:08.691Z,24.77
2019-01-15T11:23:37.578Z,18.60
2019-01-15T11:26:06.779Z,22.40
2019-01-15T11:28:35.418Z,19.20
2019-01-15T11:31:04.358Z,17.97
2019-01-15T11:33:33.659Z,27.87
2019-01-15T11:36:02.281Z,24.90
2019-01-15T11:38:30.914Z,18.13
2019-01-15T11:40:59.539Z,21.27
2019-01-15T11:43:28.814Z,17.17
2019-01-15T11:45:57.808Z,12.83
2019-01-15T11:48:26.416Z,17.67
2019-01-15T11:50:55.422Z,25.47
2019-01-15T11:53:24.275Z,22.47
2019-01-15T11:55:52.915Z,16.33
2019-01-15T11:58:21.539Z,22.50
2019-01-15T12:00:56.514Z,20.77
2019-01-15T12:03:47.597Z,18.20
2019-01-15T12:06:35.532Z,17.73
2019-01-15T12:09:21.622Z,20.43
2019-01-15T12:12:08.411Z,13.43
2019-01-15T12:14:55.359Z,21.20
2019-01-15T12:17:43.288Z,10.30
2019-01-15T12:20:21.602Z,18.23
2019-01-15T12:23:18.756Z,17.43
2019-01-15T12:26:09.352Z,14.73
2019-01-15T12:28:56.267Z,16.37
2019-01-15T12:31:40.825Z,10.27
2019-01-15T12:34:23.133Z,19.27
2019-01-15T12:36:59.554Z,12.40
2019-01-15T12:39:46.928Z,10.63
2019-01-15T12:42:49.951Z,9.70
2019-01-15T12:45:38.574Z,13.03
2019-01-15T12:48:21.838Z,12.03
2019-01-15T12:51:08.677Z,9.80
2019-01-15T12:53:54.193Z,10.13
2019-01-15T12:56:35.784Z,8.63
2019-01-15T12:59:23.719Z,7.97
2019-01-15T13:02:10.383Z,9.17
2019-01-15T13:05:04.027Z,6.47
2019-01-15T13:07:50.258Z,10.77
2019-01-15T13:10:43.982Z,11.43
2019-01-15T13:13:50.337Z,9.10
2019-01-15T13:16:30.853Z,13.07
2019-01-15T13:19:21.604Z,8.70
2019-01-15T13:22:18.253Z,4.33
2019-01-15T13:25:18.578Z,6.27
2019-01-15T13:28:21.416Z,4.87
2019-01-15T13:31:07.892Z,4.40
2019-01-15T13:33:49.766Z,7.10
2019-01-15T13:36:33.302Z,5.47
2019-01-15T13:39:19.620Z,6.77
2019-01-15T13:42:06.613Z,6.63
2019-01-15T13:44:44.645Z,9.17
2019-01-15T13:47:44.809Z,8.47
2019-01-15T13:50:35.368Z,8.93
2019-01-15T13:53:19.248Z,5.50
2019-01-15T13:56:08.149Z,7.93
2019-01-15T13:58:48.381Z,9.10
2019-01-15T14:01:38.960Z,4.00
2019-01-15T14:04:29.478Z,6.03
2019-01-15T14:07:16.215Z,10.27
2019-01-15T14:10:22.533Z,5.50
2019-01-15T14:13:16.357Z,7.30
2019-01-15T14:15:58.053Z,4.33
2019-01-15T14:18:37.695Z,4.53
2019-01-15T14:21:19.143Z,8.13
2019-01-15T14:24:09.611Z,5.50
2019-01-15T14:26:57.270Z,3.87
2019-01-15T14:29:43.592Z,3.83
2019-01-15T14:32:24.475Z,4.27
2019-01-15T14:35:16.823Z,5.50
2019-01-15T14:38:07.633Z,5.33
2019-01-15T14:41:10.689Z,4.43
2019-01-15T14:44:02.758Z,3.10
2019-01-15T14:46:59.694Z,10.20
2019-01-15T14:49:46.210Z,7.07
2019-01-15T14:52:27.179Z,4.13
2019-01-15T14:55:13.907Z,3.33
2019-01-15T14:58:01.827Z,2.90
2019-01-15T15:00:47.996Z,2.40
2019-01-15T15:03:41.730Z,5.30
2019-01-15T15:06:45.097Z,3.47
2019-01-15T15:09:36.007Z,2.43
2019-01-15T15:12:27.082Z,3.53
2019-01-15T15:15:17.008Z,3.37
2019-01-15T15:17:57.873Z,4.13
2019-01-15T15:20:50.999Z,2.80
2019-01-15T15:23:30.882Z,3.47
2019-01-15T15:26:09.030Z,4.10
2019-01-15T15:28:59.575Z,2.50
2019-01-15T15:31:45.892Z,2.83
2019-01-15T15:34:32.331Z,2.37
2019-01-15T15:37:19.201Z,3.73
2019-01-15T15:39:57.823Z,3.00
2019-01-15T15:42:49.592Z,5.77
2019-01-15T15:45:24.458Z,2.40
2019-01-15T15:48:19.179Z,2.90
2019-01-15T15:51:06.604Z,3.67
2019-01-15T15:53:53.516Z,2.20
2019-01-15T15:56:40.023Z,3.33
2019-01-15T15:59:18.665Z,2.97
2019-01-15T16:01:59.687Z,2.80
2019-01-15T16:04:58.920Z,3.50
2019-01-15T16:07:41.811Z,5.80
2019-01-15T16:10:41.812Z,3.10
2019-01-15T16:13:19.629Z,2.90
2019-01-15T16:15:56.133Z,3.67
2019-01-15T16:18:44.174Z,2.60
2019-01-15T16:21:30.648Z,3.13
2019-01-15T16:24:27.728Z,2.07
2019-01-15T16:27:08.806Z,3.17
2019-01-15T16:30:12.000Z,3.07
2019-01-15T16:32:58.609Z,3.07
2019-01-15T16:35:38.016Z,3.13
2019-01-15T16:38:25.985Z,2.80
2019-01-15T16:41:12.291Z,3.00
2019-01-15T16:43:58.804Z,4.67
2019-01-15T16:46:53.587Z,1.57
2019-01-15T16:49:31.042Z,2.33
2019-01-15T16:52:17.343Z,2.17
2019-01-15T16:55:11.113Z,5.10
2019-01-15T16:58:02.169Z,3.03
2019-01-15T17:00:59.011Z,4.70
2019-01-15T17:03:53.240Z,2.13
2019-01-15T17:06:40.212Z,2.33
2019-01-15T17:09:24.360Z,3.93
2019-01-15T17:12:08.557Z,7.43
2019-01-15T17:14:55.527Z,6.30
2019-01-15T17:17:46.376Z,5.00
2019-01-15T17:20:32.838Z,6.23
2019-01-15T17:23:20.776Z,9.43
2019-01-15T17:25:56.528Z,7.10
2019-01-15T17:28:34.478Z,14.57
2019-01-15T17:31:23.045Z,7.53
2019-01-15T17:34:13.494Z,10.97
2019-01-15T17:36:51.756Z,5.57
2019-01-15T17:39:38.016Z,7.20
2019-01-15T17:42:28.079Z,11.90
2019-01-15T17:45:07.826Z,8.07
2019-01-15T17:47:54.434Z,15.50
2019-01-15T17:50:42.470Z,8.80
2019-01-15T17:53:28.728Z,16.90
2019-01-15T17:56:15.251Z,13.20
2019-01-15T17:59:03.210Z,8.13
2019-01-15T18:01:51.153Z,14.27
2019-01-15T18:04:41.899Z,10.23
2019-01-15T18:07:30.406Z,14.13
2019-01-15T18:10:12.377Z,20.90
2019-01-15T18:13:01.699Z,16.03
2019-01-15T18:15:48.561Z,19.40
2019-01-15T18:18:36.525Z,14.33
2019-01-15T18:21:23.131Z,11.30
2019-01-15T18:24:19.059Z,14.87
2019-01-15T18:26:56.965Z,13.73
2019-01-15T18:29:39.127Z,18.03
2019-01-15T18:32:25.982Z,16.27
2019-01-15T18:35:10.950Z,11.03
2019-01-15T18:37:57.458Z,18.07
2019-01-15T18:40:54.536Z,16.77
2019-01-15T18:43:32.247Z,16.77
2019-01-15T18:46:22.671Z,20.03
2019-01-15T18:49:06.819Z,16.03
2019-01-15T18:52:00.713Z,25.83
2019-01-15T18:54:54.529Z,27.87
2019-01-15T18:57:41.305Z,15.57
2019-01-15T19:00:30.619Z,21.03
2019-01-15T19:03:16.984Z,17.13
2019-01-15T19:05:56.414Z,17.97
2019-01-15T19:08:37.806Z,28.63
2019-01-15T19:11:26.825Z,17.00
2019-01-15T19:14:27.193Z,21.90
2019-01-15T19:17:17.559Z,12.33
2019-01-15T19:20:02.591Z,21.07
2019-01-15T19:22:40.766Z,20.70
2019-01-15T19:25:28.509Z,21.57
2019-01-15T19:28:23.329Z,16.37
2019-01-15T19:31:27.113Z,21.43
2019-01-15T19:34:14.767Z,16.63
2019-01-15T19:36:56.840Z,17.30
2019-01-15T19:39:38.492Z,17.57
2019-01-15T19:42:21.879Z,23.33
2019-01-15T19:45:24.677Z,21.40
2019-01-15T19:48:11.258Z,21.57
2019-01-15T19:51:14.351Z,17.50
2019-01-15T19:53:52.660Z,19.07
2019-01-15T19:56:43.487Z,17.40
2019-01-15T19:59:18.398Z,15.23
2019-01-15T20:02:05.422Z,16.93
2019-01-15T20:04:50.895Z,17.97
2019-01-15T20:07:38.574Z,19.00
2019-01-15T20:10:34.248Z,19.80
2019-01-15T20:13:13.998Z,17.37
2019-01-15T20:15:56.096Z,19.47
2019-01-15T20:18:54.379Z,29.53
2019-01-15T20:21:35.287Z,22.87
2019-01-15T20:24:21.974Z,27.30
2019-01-15T20:27:09.902Z,22.60
2019-01-15T20:30:01.217Z,25.10
2019-01-15T20:32:50.701Z,25.00
2019-01-15T20:35:41.430Z,23.57
2019-01-15T20:38:20.317Z,12.13
2019-01-15T20:41:26.455Z,23.23
2019-01-15T20:44:14.521Z,19.30
2019-01-15T20:46:51.843Z,27.17
2019-01-15T20:49:33.755Z,21.97
2019-01-15T20:52:31.580Z,14.07
2019-01-15T20:55:31.950Z,27.50
2019-01-15T20:58:28.370Z,21.00
2019-01-15T21:04:19.590Z,25.80
2019-01-15T21:07:16.339Z,13.60
2019-01-15T21:10:07.091Z,18.73
2019-01-15T21:12:51.179Z,19.40
2019-01-15T21:15:38.079Z,21.33
2019-01-15T21:18:26.106Z,20.00
2019-01-15T21:21:26.253Z,18.93
2019-01-15T21:24:15.415Z,19.80
2019-01-15T21:27:01.720Z,15.43
2019-01-15T21:29:43.658Z,21.07
2019-01-15T21:32:34.138Z,14.13
2019-01-15T21:35:21.792Z,15.17
2019-01-15T21:38:22.008Z,18.00
2019-01-15T21:41:08.474Z,17.93
2019-01-15T21:43:56.717Z,16.00
2019-01-15T21:46:43.323Z,21.87
2019-01-15T21:49:30.034Z,14.20
2019-01-15T21:52:16.846Z,19.67
2019-01-15T21:55:03.553Z,17.27
2019-01-15T21:57:45.864Z,15.73
2019-01-15T22:00:28.536Z,14.43
2019-01-15T22:03:07.457Z,12.63
2019-01-15T22:06:10.597Z,14.37
2019-01-15T22:08:56.941Z,12.73
2019-01-15T22:11:43.232Z,16.57
2019-01-15T22:14:32.177Z,11.90
2019-01-15T22:17:08.481Z,15.50
2019-01-15T22:19:55.173Z,12.90
2019-01-15T22:22:45.807Z,15.67
2019-01-15T22:25:32.666Z,11.30
2019-01-15T22:28:17.174Z,11.80
2019-01-15T22:31:04.044Z,10.13
2019-01-15T22:33:50.684Z,15.63
2019-01-15T22:36:37.308Z,13.53
2019-01-15T22:39:15.947Z,17.20
2019-01-15T22:42:03.677Z,7.90
2019-01-15T22:44:50.214Z,8.37
2019-01-15T22:47:44.272Z,10.50
2019-01-15T22:50:30.922Z,11.10
2019-01-15T22:53:31.307Z,9.40
2019-01-15T22:56:18.220Z,8.70
2019-01-15T22:59:15.579Z,9.60
2019-01-15T23:02:02.475Z,9.47
2019-01-15T23:04:43.983Z,9.93
2019-01-15T23:07:31.913Z,7.67
2019-01-15T23:10:28.763Z,8.07
2019-01-15T23:13:05.641Z,6.93
2019-01-15T23:15:53.115Z,7.73
2019-01-15T23:18:34.726Z,7.20
2019-01-15T23:21:25.496Z,1.67
2019-01-15T23:24:12.171Z,4.30
2019-01-15T23:27:00.114Z,3.27
2019-01-15T23:29:57.335Z,4.30
2019-01-15T23:32:44.385Z,3.70
2019-01-15T23:35:47.291Z,4.33
2019-01-15T23:38:50.367Z,4.07
2019-01-15T23:41:48.035Z,2.27
2019-01-15T23:44:35.759Z,2.27
2019-01-15T23:47:17.556Z,2.23
2019-01-15T23:49:54.332Z,1.73
2019-01-15T23:52:30.768Z,3.00
2019-01-15T23:55:18.022Z,1.50
2019-01-15T23:57:54.256Z,1.33
